Time;durP1;ratioP1;P1;durP2;ratioP2;P2;SDS_P1;SDS_P2;PMS_P1;PMS_P2;Temp;Humidity;BMP_temperature;BMP_pressure;BME280_temperature;BME280_humidity;BME280_pressure;Samples;Min_cycle;Max_cycle;Signal;HPM_P1;HPM_P2
2022/03/28 00:00:53;;;;;;;104.40;58.10;;;;;;;0.19;63.85;99989.56;105305;1268;62762;-72
2022/03/28 00:03:19;;;;;;;108.50;58.20;;;;;;;0.15;64.02;99988.23;105333;1268;61240;-71
2022/03/28 00:05:45;;;;;;;109.20;61.10;;;;;;;0.10;63.98;99989.84;105313;1268;61273;-71
2022/03/28 00:08:12;;;;;;;102.70;58.40;;;;;;;0.08;64.08;99983.73;105336;1268;61722;-70
2022/03/28 00:10:39;;;;;;;106.20;59.30;;;;;;;0.07;64.16;99982.52;105262;1268;61301;-71
2022/03/28 00:13:06;;;;;;;107.10;61.60;;;;;;;0.06;64.32;99984.27;105326;1268;61463;-70
2022/03/28 00:15:32;;;;;;;113.60;61.50;;;;;;;0.04;64.36;99980.27;105307;1268;62097;-71
2022/03/28 00:17:58;;;;;;;111.40;60.80;;;;;;;0.02;64.44;99978.02;105330;1268;61226;-71
2022/03/28 00:20:25;;;;;;;106.40;62.40;;;;;;;-0.01;64.63;99974.01;105344;1268;61330;-70
2022/03/28 00:22:51;;;;;;;108.90;61.10;;;;;;;-0.04;64.90;99969.50;105320;1268;61305;-72
2022/03/28 00:25:18;;;;;;;111.10;63.60;;;;;;;-0.08;65.09;99964.82;104920;1268;61304;-70
2022/03/28 00:27:44;;;;;;;112.30;62.90;;;;;;;-0.08;65.14;99962.55;105320;1268;61249;-70
2022/03/28 00:30:11;;;;;;;97.70;60.40;;;;;;;-0.06;65.23;99959.91;105116;1268;61289;-70
2022/03/28 00:32:37;;;;;;;107.40;59.10;;;;;;;-0.07;65.38;99952.94;105368;1268;61329;-71
2022/03/28 00:35:04;;;;;;;104.80;59.50;;;;;;;-0.10;65.55;99949.46;105309;1268;61358;-72
2022/03/28 00:37:31;;;;;;;106.70;60.20;;;;;;;-0.15;65.60;99947.77;105324;1268;61331;-72
2022/03/28 00:39:57;;;;;;;103.30;61.00;;;;;;;-0.21;65.96;99943.45;105369;1268;61268;-72
2022/03/28 00:42:24;;;;;;;110.10;61.10;;;;;;;-0.26;66.01;99942.95;105350;1268;76315;-71
2022/03/28 00:44:50;;;;;;;108.30;63.70;;;;;;;-0.30;66.06;99942.10;105366;1267;61306;-70
2022/03/28 00:47:17;;;;;;;112.40;65.40;;;;;;;-0.32;66.31;99942.30;105315;1265;61316;-71
2022/03/28 00:49:43;;;;;;;111.00;64.20;;;;;;;-0.33;66.54;99945.80;105148;1268;61454;-72
2022/03/28 00:52:09;;;;;;;110.20;64.70;;;;;;;-0.34;66.54;99946.86;105488;1267;61356;-70
2022/03/28 00:54:36;;;;;;;111.10;64.80;;;;;;;-0.33;66.74;99944.05;105278;1268;61328;-69
2022/03/28 00:57:03;;;;;;;108.60;63.50;;;;;;;-0.31;66.80;99939.33;105301;1268;517482;-71
2022/03/28 00:59:32;;;;;;;114.20;63.90;;;;;;;-0.29;66.94;99938.44;105473;1267;73310;-72
2022/03/28 01:02:01;;;;;;;99.70;60.70;;;;;;;-0.29;67.21;99934.25;105359;1271;61356;-71
2022/03/28 01:04:28;;;;;;;106.60;61.70;;;;;;;-0.28;67.71;99935.11;105448;1268;61666;-71
2022/03/28 01:06:55;;;;;;;112.60;64.00;;;;;;;-0.28;67.67;99936.17;105556;1268;76254;-71
2022/03/28 01:09:21;;;;;;;117.80;67.30;;;;;;;-0.27;67.82;99935.98;105405;1266;61203;-70
2022/03/28 01:11:49;;;;;;;114.80;69.20;;;;;;;-0.27;67.84;99934.40;102410;1268;1005456;-71
2022/03/28 01:14:16;;;;;;;110.80;68.00;;;;;;;-0.26;67.91;99930.21;105115;1268;61397;-71
2022/03/28 01:19:27;;;;;;;114.30;67.00;;;;;;;-0.33;68.19;99923.79;105398;1268;76290;-73
2022/03/28 01:21:54;;;;;;;120.90;75.20;;;;;;;-0.37;68.20;99924.54;105476;1268;61215;-72
2022/03/28 01:24:20;;;;;;;127.20;78.30;;;;;;;-0.42;68.32;99925.44;105473;1268;61377;-71
2022/03/28 01:26:48;;;;;;;120.10;75.30;;;;;;;-0.40;68.70;99921.06;105455;1268;61315;-72
2022/03/28 01:29:14;;;;;;;120.70;74.50;;;;;;;-0.40;69.00;99918.96;105822;1268;61236;-72
2022/03/28 01:31:41;;;;;;;126.30;75.10;;;;;;;-0.39;68.98;99918.27;105996;1268;61250;-72
2022/03/28 01:34:16;;;;;;;115.50;73.00;;;;;;;-0.38;69.16;99910.59;105868;1268;61308;-71
2022/03/28 01:36:44;;;;;;;118.60;72.60;;;;;;;-0.39;69.40;99909.02;105838;1268;72177;-71
2022/03/28 01:39:12;;;;;;;117.90;72.90;;;;;;;-0.43;69.40;99905.38;105497;1268;61370;-71
2022/03/28 01:41:39;;;;;;;114.20;70.50;;;;;;;-0.51;69.44;99902.11;105309;1268;61943;-70
2022/03/28 01:44:05;;;;;;;114.10;72.60;;;;;;;-0.57;69.44;99898.49;105378;1268;76048;-71
2022/03/28 01:46:39;;;;;;;120.50;74.70;;;;;;;-0.63;69.75;99892.09;105397;1267;69816;-71
2022/03/28 01:49:06;;;;;;;121.00;71.80;;;;;;;-0.67;69.87;99891.75;105495;1267;73493;-71
2022/03/28 01:51:32;;;;;;;111.50;68.80;;;;;;;-0.71;70.22;99886.20;105345;1268;61359;-72
2022/03/28 01:54:00;;;;;;;121.60;71.40;;;;;;;-0.75;70.23;99878.73;105325;1268;61298;-71
2022/03/28 01:56:27;;;;;;;121.90;72.30;;;;;;;-0.77;70.24;99874.03;105286;1268;76220;-72
2022/03/28 01:58:54;;;;;;;128.50;75.50;;;;;;;-0.80;70.27;99875.98;105361;1268;69490;-71
2022/03/28 02:01:21;;;;;;;116.10;68.00;;;;;;;-0.83;70.45;99872.33;105087;1268;72281;-71
2022/03/28 02:03:47;;;;;;;126.80;75.60;;;;;;;-0.84;70.52;99873.73;105324;1266;61231;-71
2022/03/28 02:06:14;;;;;;;123.10;75.00;;;;;;;-0.86;70.57;99872.88;105111;1269;61368;-71
2022/03/28 02:08:41;;;;;;;122.60;76.30;;;;;;;-0.87;70.67;99870.61;105328;1268;61372;-72
2022/03/28 02:11:08;;;;;;;121.90;77.00;;;;;;;-0.88;70.81;99868.70;105366;1267;69168;-71
2022/03/28 02:13:35;;;;;;;128.50;80.30;;;;;;;-0.88;70.97;99866.60;105286;1271;74612;-71
2022/03/28 02:16:02;;;;;;;131.50;78.70;;;;;;;-0.88;71.03;99865.91;105334;1268;61288;-71
2022/03/28 02:18:28;;;;;;;128.40;83.10;;;;;;;-0.85;71.39;99866.06;105381;1268;61311;-72
2022/03/28 02:20:55;;;;;;;130.90;82.80;;;;;;;-0.84;71.71;99871.12;105362;1265;61255;-72
2022/03/28 02:23:22;;;;;;;128.90;82.20;;;;;;;-0.82;71.93;99872.50;105380;1268;70316;-71
2022/03/28 02:25:49;;;;;;;133.30;83.50;;;;;;;-0.80;71.82;99869.34;105341;1268;74367;-74
2022/03/28 02:28:15;;;;;;;129.30;81.00;;;;;;;-0.77;71.90;99860.42;105341;1268;61206;-75
2022/03/28 02:30:45;;;;;;;127.20;79.30;;;;;;;-0.78;72.18;99861.30;105389;1268;61353;-70
2022/03/28 02:33:11;;;;;;;129.80;80.70;;;;;;;-0.79;72.09;99866.20;105370;1268;75239;-72
2022/03/28 02:35:38;;;;;;;132.70;78.50;;;;;;;-0.79;72.13;99859.56;105357;1268;61323;-72
2022/03/28 02:38:04;;;;;;;125.90;77.50;;;;;;;-0.82;72.13;99862.91;105311;1268;61233;-71
2022/03/28 02:40:32;;;;;;;121.10;77.80;;;;;;;-0.87;72.20;99859.96;105107;1268;61471;-73
2022/03/28 02:43:00;;;;;;;120.90;75.30;;;;;;;-0.92;72.06;99857.38;105447;1268;62084;-70
2022/03/28 02:45:29;;;;;;;117.80;72.90;;;;;;;-0.93;72.05;99854.95;105341;1268;76328;-71
2022/03/28 02:47:56;;;;;;;118.30;74.70;;;;;;;-0.95;72.14;99857.41;105461;1268;70258;-70
2022/03/28 02:50:23;;;;;;;124.40;79.40;;;;;;;-0.98;72.37;99854.29;105294;1268;74183;-72
2022/03/28 02:52:49;;;;;;;121.80;79.90;;;;;;;-1.03;72.71;99850.13;105347;1267;61319;-71
2022/03/28 02:55:17;;;;;;;132.60;84.20;;;;;;;-1.06;72.71;99849.96;105362;1267;61284;-70
2022/03/28 02:57:43;;;;;;;123.30;82.20;;;;;;;-1.06;73.05;99849.27;105325;1268;74470;-72
2022/03/28 03:00:10;;;;;;;136.10;85.40;;;;;;;-1.05;73.39;99843.70;105296;1268;61156;-71
2022/03/28 03:02:38;;;;;;;130.10;84.50;;;;;;;-1.03;73.36;99843.66;105364;1268;74040;-72
2022/03/28 03:05:06;;;;;;;131.30;84.30;;;;;;;-1.00;73.47;99836.50;105497;1268;61237;-71
2022/03/28 03:07:33;;;;;;;138.20;87.30;;;;;;;-1.00;73.51;99833.90;105255;1268;61561;-71
2022/03/28 03:10:00;;;;;;;140.70;92.60;;;;;;;-0.99;73.46;99835.29;105356;1268;75271;-71
2022/03/28 03:12:26;;;;;;;134.60;89.10;;;;;;;-1.00;73.49;99830.76;105324;1268;61182;-72
2022/03/28 03:14:53;;;;;;;137.70;88.90;;;;;;;-1.01;73.71;99829.19;105327;1268;61213;-72
2022/03/28 03:17:20;;;;;;;135.00;90.10;;;;;;;-1.05;73.70;99823.30;105319;1268;61406;-72
2022/03/28 03:19:46;;;;;;;130.80;86.70;;;;;;;-1.09;73.92;99826.79;105329;1268;62037;-72
2022/03/28 03:22:14;;;;;;;138.40;91.20;;;;;;;-1.15;73.83;99825.45;105309;1268;76485;-70
2022/03/28 03:24:41;;;;;;;135.10;86.70;;;;;;;-1.18;73.97;99821.98;105334;1268;69226;-70
2022/03/28 03:27:08;;;;;;;138.10;90.20;;;;;;;-1.19;74.12;99825.81;105381;1268;74636;-72
2022/03/28 03:29:35;;;;;;;135.20;91.60;;;;;;;-1.21;74.38;99827.91;105414;1268;61357;-72
2022/03/28 03:32:03;;;;;;;136.40;89.90;;;;;;;-1.22;74.55;99825.31;105366;1268;62253;-72
2022/03/28 03:34:30;;;;;;;138.10;89.30;;;;;;;-1.22;74.64;99831.94;105399;1268;75360;-71
2022/03/28 03:36:57;;;;;;;127.80;87.20;;;;;;;-1.26;74.59;99826.02;105327;1268;70498;-70
2022/03/28 03:39:25;;;;;;;134.60;87.40;;;;;;;-1.28;74.61;99824.30;105311;1268;61285;-72
2022/03/28 03:41:53;;;;;;;135.60;89.60;;;;;;;-1.30;74.60;99825.88;105404;1268;61319;-72
2022/03/28 03:44:19;;;;;;;130.50;87.10;;;;;;;-1.31;74.59;99822.92;105492;1268;61986;-72
2022/03/28 03:46:46;;;;;;;142.30;90.90;;;;;;;-1.33;74.77;99817.19;105378;1268;76487;-71
2022/03/28 03:49:13;;;;;;;131.90;86.80;;;;;;;-1.37;74.71;99816.15;105301;1268;68462;-71
2022/03/28 03:51:39;;;;;;;144.00;94.20;;;;;;;-1.40;74.88;99817.73;105291;1268;73308;-70
2022/03/28 03:54:06;;;;;;;142.80;94.70;;;;;;;-1.39;75.13;99810.77;105134;1268;61338;-71
2022/03/28 03:56:33;;;;;;;150.00;96.40;;;;;;;-1.40;75.30;99810.23;105338;1268;61164;-71
2022/03/28 03:58:59;;;;;;;148.70;96.10;;;;;;;-1.42;75.44;99807.81;105305;1268;61283;-71
2022/03/28 04:01:26;;;;;;;144.40;97.30;;;;;;;-1.43;75.47;99808.34;105315;1268;70395;-71
2022/03/28 04:03:53;;;;;;;150.10;98.70;;;;;;;-1.42;75.81;99808.17;105366;1268;74716;-72
2022/03/28 04:06:20;;;;;;;149.70;99.60;;;;;;;-1.41;75.89;99808.15;105339;1267;61300;-71
2022/03/28 04:08:47;;;;;;;148.80;94.50;;;;;;;-1.40;75.93;99810.41;105350;1268;61243;-71
2022/03/28 04:11:13;;;;;;;147.80;96.40;;;;;;;-1.39;75.94;99803.27;105373;1267;61336;-71
2022/03/28 04:13:40;;;;;;;153.40;98.20;;;;;;;-1.40;75.92;99804.14;105335;1268;69524;-70
2022/03/28 04:16:07;;;;;;;150.50;98.10;;;;;;;-1.40;75.90;99804.31;105418;1268;73906;-71
2022/03/28 04:18:35;;;;;;;151.50;96.60;;;;;;;-1.40;76.03;99803.79;105082;1269;61427;-72
2022/03/28 04:21:02;;;;;;;151.10;98.30;;;;;;;-1.41;76.11;99801.71;105371;1268;61216;-72
2022/03/28 04:23:28;;;;;;;162.30;106.50;;;;;;;-1.42;76.04;99797.02;105358;1268;75278;-71
2022/03/28 04:25:55;;;;;;;172.50;110.90;;;;;;;-1.41;76.26;99797.17;105397;1268;61331;-72
2022/03/28 04:28:21;;;;;;;184.30;113.20;;;;;;;-1.40;76.29;99795.95;105343;1268;61374;-70
2022/03/28 04:30:50;;;;;;;160.50;102.70;;;;;;;-1.39;76.42;99794.90;105319;1268;61275;-72
2022/03/28 04:33:17;;;;;;;158.60;100.10;;;;;;;-1.37;76.53;99795.92;105269;1268;61942;-72
2022/03/28 04:35:44;;;;;;;151.20;100.50;;;;;;;-1.32;76.77;99798.70;105363;1268;75883;-72
2022/03/28 04:38:10;;;;;;;156.30;103.20;;;;;;;-1.27;76.68;99794.66;105353;1268;70095;-71
2022/03/28 04:40:37;;;;;;;150.60;98.90;;;;;;;-1.23;76.96;99793.77;105364;1268;73822;-73
2022/03/28 04:43:05;;;;;;;154.20;100.10;;;;;;;-1.18;76.71;99788.84;105513;1268;61379;-72
2022/03/28 04:45:32;;;;;;;154.80;102.50;;;;;;;-1.13;76.61;99784.45;105361;1268;61351;-71
2022/03/28 04:47:59;;;;;;;149.00;98.30;;;;;;;-1.05;76.70;99788.40;105342;1268;75332;-70
2022/03/28 04:50:27;;;;;;;151.10;99.30;;;;;;;-0.99;76.65;99784.17;105310;1268;69425;-70
2022/03/28 04:52:54;;;;;;;145.30;99.40;;;;;;;-0.78;76.42;99782.10;105322;1268;73542;-72
2022/03/28 04:55:21;;;;;;;146.10;96.50;;;;;;;-0.42;75.73;99786.83;105060;1268;61361;-71
2022/03/28 04:57:47;;;;;;;138.60;95.50;;;;;;;-0.08;75.35;99782.46;105357;1268;62085;-73
2022/03/28 05:00:14;;;;;;;141.70;95.80;;;;;;;0.20;74.78;99779.34;105088;1268;74706;-71
2022/03/28 05:02:41;;;;;;;144.60;95.30;;;;;;;0.52;74.29;99780.86;105136;1268;70460;-72
2022/03/28 05:05:08;;;;;;;149.40;98.00;;;;;;;0.86;73.63;99779.31;105363;1268;61237;-72
2022/03/28 05:07:37;;;;;;;137.00;95.40;;;;;;;1.21;72.97;99784.20;105106;1268;61293;-71
2022/03/28 05:10:05;;;;;;;138.60;95.10;;;;;;;1.51;72.31;99782.48;105369;1268;61269;-71
2022/03/28 05:12:33;;;;;;;135.20;95.90;;;;;;;1.80;71.90;99783.17;105565;1268;76374;-71
2022/03/28 05:15:00;;;;;;;138.80;95.40;;;;;;;2.14;71.26;99775.86;105347;1268;69330;-72
2022/03/28 05:17:31;;;;;;;132.00;94.80;;;;;;;2.37;70.70;99773.45;105486;1266;73572;-74
2022/03/28 05:20:00;;;;;;;140.20;96.00;;;;;;;2.52;70.08;99772.61;105526;1268;61306;-72
2022/03/28 05:22:27;;;;;;;141.30;95.70;;;;;;;2.66;69.83;99773.02;105188;1271;61281;-71
2022/03/28 05:24:55;;;;;;;135.70;94.30;;;;;;;2.87;69.65;99771.48;105249;1268;73265;-72
2022/03/28 05:27:22;;;;;;;137.90;95.70;;;;;;;3.07;69.22;99762.25;105332;1268;68945;-72
2022/03/28 05:29:48;;;;;;;128.70;94.10;;;;;;;3.29;68.78;99762.40;105350;1267;73271;-71
2022/03/28 05:32:15;;;;;;;131.90;94.50;;;;;;;3.52;68.39;99765.32;105274;1268;61316;-71
2022/03/28 05:34:42;;;;;;;138.80;95.40;;;;;;;3.74;67.92;99764.95;105332;1268;61270;-72
2022/03/28 05:37:14;;;;;;;131.70;94.00;;;;;;;3.93;67.43;99767.58;105357;1268;74871;-73
2022/03/28 05:39:43;;;;;;;130.10;95.00;;;;;;;4.07;67.17;99763.66;105596;1268;69395;-71
2022/03/28 05:42:10;;;;;;;121.90;90.70;;;;;;;4.18;66.99;99757.91;105457;1268;74909;-71
2022/03/28 05:44:39;;;;;;;123.20;91.30;;;;;;;4.34;66.94;99758.16;105348;1268;61270;-73
2022/03/28 05:47:06;;;;;;;118.40;87.00;;;;;;;4.56;66.86;99760.14;105341;1268;61814;-73
2022/03/28 05:49:32;;;;;;;115.40;84.20;;;;;;;4.74;66.45;99757.10;105413;1268;75292;-71
2022/03/28 05:51:58;;;;;;;109.40;79.10;;;;;;;4.98;66.36;99759.55;105325;1268;61326;-72
2022/03/28 05:54:25;;;;;;;114.90;81.10;;;;;;;5.20;65.98;99754.79;105338;1268;61268;-72
2022/03/28 05:56:52;;;;;;;109.00;78.40;;;;;;;5.37;65.68;99751.59;105328;1268;61354;-71
2022/03/28 05:59:18;;;;;;;108.30;78.50;;;;;;;5.49;65.34;99754.70;105101;1268;61467;-71
2022/03/28 06:01:45;;;;;;;111.10;77.80;;;;;;;5.66;64.95;99749.53;105053;1268;75474;-72
2022/03/28 06:04:12;;;;;;;105.50;74.90;;;;;;;5.59;65.00;99749.08;105316;1268;70677;-72
2022/03/28 06:06:38;;;;;;;95.60;70.60;;;;;;;5.56;65.06;99749.89;105294;1268;61276;-71
2022/03/28 06:09:05;;;;;;;90.10;67.30;;;;;;;5.63;64.60;99744.69;105254;1268;61281;-72
2022/03/28 06:11:32;;;;;;;91.80;64.20;;;;;;;5.89;63.99;99738.67;105310;1268;61926;-72
2022/03/28 06:13:58;;;;;;;80.50;52.90;;;;;;;6.15;63.56;99739.53;105301;1268;61202;-72
2022/03/28 06:16:25;;;;;;;73.70;50.60;;;;;;;6.34;62.98;99738.80;105349;1266;69542;-73
2022/03/28 06:18:52;;;;;;;72.90;49.90;;;;;;;6.50;62.60;99731.50;105290;1268;61288;-73
2022/03/28 06:21:18;;;;;;;75.80;53.90;;;;;;;6.62;62.18;99731.38;105340;1268;61300;-72
2022/03/28 06:23:45;;;;;;;73.40;51.90;;;;;;;6.79;61.91;99730.35;105030;1268;61915;-72
2022/03/28 06:26:11;;;;;;;74.20;51.60;;;;;;;6.97;61.59;99728.60;105324;1268;61332;-71
2022/03/28 06:28:39;;;;;;;76.10;50.30;;;;;;;7.05;61.23;99726.70;104992;1268;61283;-70
2022/03/28 06:31:06;;;;;;;74.40;48.50;;;;;;;6.98;61.29;99722.73;105356;1268;73938;-71
2022/03/28 06:33:33;;;;;;;67.30;47.50;;;;;;;6.91;61.32;99723.55;105330;1268;61303;-72
2022/03/28 06:36:00;;;;;;;66.70;48.10;;;;;;;6.82;61.22;99721.61;105314;1268;61198;-71
2022/03/28 06:38:26;;;;;;;65.20;42.20;;;;;;;6.71;60.94;99719.56;105274;1268;75353;-71
2022/03/28 06:40:53;;;;;;;64.80;44.00;;;;;;;6.62;60.65;99718.88;105338;1268;69377;-74
2022/03/28 06:43:20;;;;;;;67.00;43.50;;;;;;;6.52;60.60;99714.10;105320;1268;73738;-73
2022/03/28 06:45:46;;;;;;;64.70;42.70;;;;;;;6.48;60.80;99707.77;105135;1269;61249;-70
2022/03/28 06:48:12;;;;;;;66.60;43.20;;;;;;;6.46;60.84;99705.34;105317;1268;61381;-73
2022/03/28 06:50:39;;;;;;;68.90;42.60;;;;;;;6.46;60.90;99701.81;105296;1268;61381;-73
2022/03/28 06:53:05;;;;;;;61.70;41.00;;;;;;;6.48;60.84;99702.98;105328;1268;61297;-74
2022/03/28 06:55:32;;;;;;;67.40;42.80;;;;;;;6.50;60.67;99703.08;105323;1268;61281;-70
2022/03/28 06:57:58;;;;;;;61.30;40.00;;;;;;;6.55;60.84;99704.10;105287;1268;61170;-73
2022/03/28 07:00:25;;;;;;;57.20;37.70;;;;;;;6.61;60.63;99700.20;104992;1271;61335;-73
2022/03/28 07:02:51;;;;;;;50.40;32.00;;;;;;;6.68;60.64;99699.20;105309;1268;61352;-73
2022/03/28 07:05:18;;;;;;;33.80;22.50;;;;;;;6.79;60.47;99694.18;105313;1268;61275;-72
2022/03/28 07:07:46;;;;;;;26.30;18.00;;;;;;;6.88;59.71;99692.04;105324;1267;61381;-72
2022/03/28 07:10:15;;;;;;;28.50;17.50;;;;;;;6.97;59.21;99688.85;105365;1268;61313;-72
2022/03/28 07:12:42;;;;;;;30.90;20.10;;;;;;;7.09;59.18;99685.70;105377;1268;61818;-71
2022/03/28 07:15:10;;;;;;;24.80;17.40;;;;;;;7.24;59.07;99684.88;105263;1268;75000;-70
2022/03/28 07:17:58;;;;;;;26.10;18.30;;;;;;;7.40;58.89;99681.91;105370;1268;70420;-73
2022/03/28 07:20:29;;;;;;;23.40;15.40;;;;;;;7.55;58.24;99678.09;105291;1268;74571;-71
2022/03/28 07:22:57;;;;;;;24.30;15.90;;;;;;;7.68;58.12;99678.02;105380;1268;61371;-72
2022/03/28 07:25:24;;;;;;;25.30;16.60;;;;;;;7.83;57.46;99675.45;105392;1268;60813;-71
2022/03/28 07:27:52;;;;;;;25.20;15.60;;;;;;;7.96;57.01;99671.30;105347;1269;75419;-72
2022/03/28 07:30:21;;;;;;;24.70;16.70;;;;;;;8.06;55.98;99668.21;105334;1268;70494;-71
2022/03/28 07:32:47;;;;;;;23.70;15.10;;;;;;;8.19;56.13;99667.79;105311;1268;74446;-72
2022/03/28 07:35:15;;;;;;;22.60;14.20;;;;;;;8.33;55.86;99662.33;105092;1268;61275;-70
2022/03/28 07:37:43;;;;;;;24.60;13.80;;;;;;;8.47;55.30;99658.02;105443;1268;61243;-71
2022/03/28 07:40:11;;;;;;;18.00;12.40;;;;;;;8.60;55.13;99657.90;105510;1268;76267;-72
2022/03/28 07:42:40;;;;;;;20.70;12.70;;;;;;;8.76;54.49;99653.27;105373;1268;69205;-71
2022/03/28 07:45:08;;;;;;;18.10;10.60;;;;;;;8.92;52.47;99649.62;105607;1268;72383;-71
2022/03/28 07:47:36;;;;;;;16.70;11.40;;;;;;;9.10;51.99;99644.30;105359;1268;61198;-72
2022/03/28 07:50:04;;;;;;;17.20;10.50;;;;;;;9.29;51.41;99639.94;105384;1268;62051;-72
2022/03/28 07:52:31;;;;;;;14.20;9.40;;;;;;;9.47;51.36;99630.15;105558;1268;75877;-73
2022/03/28 07:54:58;;;;;;;14.60;9.10;;;;;;;9.63;50.99;99624.69;105348;1268;69956;-71
2022/03/28 07:57:25;;;;;;;13.20;8.70;;;;;;;9.83;50.65;99623.46;105126;1268;73485;-72
2022/03/28 07:59:52;;;;;;;12.20;8.30;;;;;;;10.00;49.31;99619.50;105435;1268;61287;-72
2022/03/28 08:02:18;;;;;;;12.10;8.40;;;;;;;10.18;49.03;99615.52;105295;1268;61382;-70
2022/03/28 08:04:45;;;;;;;12.10;7.80;;;;;;;10.32;48.20;99611.20;105467;1268;61201;-73
2022/03/28 08:07:13;;;;;;;13.80;9.80;;;;;;;10.47;47.54;99605.91;105413;1268;70508;-72
2022/03/28 08:09:41;;;;;;;10.10;7.40;;;;;;;10.62;47.78;99602.78;105444;1268;73336;-70
2022/03/28 08:12:09;;;;;;;9.50;5.90;;;;;;;10.80;47.37;99595.36;105382;1268;61375;-71
2022/03/28 08:14:36;;;;;;;9.40;5.50;;;;;;;10.97;46.86;99589.02;105167;1268;61768;-72
2022/03/28 08:17:04;;;;;;;7.70;5.40;;;;;;;11.14;44.84;99579.42;105370;1268;76224;-72
2022/03/28 08:19:31;;;;;;;9.50;6.10;;;;;;;11.32;44.71;99577.52;105846;1268;70235;-70
2022/03/28 08:21:57;;;;;;;10.80;6.20;;;;;;;11.49;43.82;99572.88;105326;1268;61381;-71
2022/03/28 08:24:24;;;;;;;7.90;6.00;;;;;;;11.63;42.63;99570.04;105359;1268;61260;-72
2022/03/28 08:26:51;;;;;;;8.70;5.60;;;;;;;11.77;42.57;99565.84;105355;1268;61174;-71
2022/03/28 08:29:19;;;;;;;10.90;6.50;;;;;;;11.89;42.81;99563.67;105364;1268;76004;-72
2022/03/28 08:31:46;;;;;;;10.10;6.20;;;;;;;11.99;42.61;99560.90;105454;1268;69475;-70
2022/03/28 08:34:12;;;;;;;9.90;6.70;;;;;;;12.14;43.03;99555.30;105319;1268;74451;-70
2022/03/28 08:36:39;;;;;;;8.50;5.90;;;;;;;12.31;42.66;99548.35;105318;1268;61402;-72
2022/03/28 08:39:06;;;;;;;8.90;6.50;;;;;;;12.43;42.35;99544.14;105319;1268;62053;-73
2022/03/28 08:41:33;;;;;;;10.40;6.90;;;;;;;12.56;42.19;99542.60;105283;1268;75919;-72
2022/03/28 08:44:02;;;;;;;11.00;6.60;;;;;;;12.64;41.40;99542.77;105503;1268;69406;-71
2022/03/28 08:46:29;;;;;;;11.40;6.40;;;;;;;12.73;41.42;99534.14;105322;1268;74341;-72
2022/03/28 08:48:57;;;;;;;8.60;6.20;;;;;;;12.82;40.12;99525.33;105338;1268;61406;-70
2022/03/28 08:51:24;;;;;;;11.30;7.20;;;;;;;12.91;40.57;99521.13;105150;1268;61365;-72
2022/03/28 08:53:51;;;;;;;7.10;6.10;;;;;;;13.04;40.90;99517.95;105358;1268;76231;-70
2022/03/28 08:56:17;;;;;;;9.30;7.30;;;;;;;13.15;39.65;99513.06;105364;1268;61364;-71
2022/03/28 08:58:43;;;;;;;8.20;6.70;;;;;;;13.23;39.93;99511.14;105339;1268;61281;-70
2022/03/28 09:01:11;;;;;;;10.50;7.10;;;;;;;13.33;40.48;99508.49;105374;1268;61419;-70
2022/03/28 09:03:47;;;;;;;8.80;6.90;;;;;;;13.48;40.38;99502.44;105434;1268;61273;-72
2022/03/28 09:06:37;;;;;;;7.80;5.90;;;;;;;13.61;40.29;99501.85;105221;1268;76081;-73
2022/03/28 09:09:32;;;;;;;7.50;6.50;;;;;;;13.72;39.37;99493.03;105213;1268;69213;-73
2022/03/28 09:12:06;;;;;;;7.90;6.40;;;;;;;13.81;38.93;99498.94;105349;1268;75019;-72
2022/03/28 09:14:40;;;;;;;7.40;6.50;;;;;;;13.90;39.06;99490.27;105390;1268;61467;-70
2022/03/28 09:17:13;;;;;;;9.50;6.70;;;;;;;13.98;39.03;99486.99;105512;1268;62248;-71
2022/03/28 09:19:54;;;;;;;9.20;6.60;;;;;;;14.08;38.69;99485.25;105385;1268;75461;-71
2022/03/28 09:22:29;;;;;;;10.30;6.70;;;;;;;14.14;38.40;99479.08;105385;1268;69158;-72
2022/03/28 09:25:04;;;;;;;10.70;7.00;;;;;;;14.24;38.55;99477.27;105515;1268;73448;-72
2022/03/28 09:27:34;;;;;;;7.40;6.20;;;;;;;14.38;38.54;99474.81;105130;1269;61279;-70
2022/03/28 09:30:08;;;;;;;10.20;7.50;;;;;;;14.55;38.15;99471.37;105113;1269;61937;-72
2022/03/28 09:32:38;;;;;;;9.70;6.90;;;;;;;14.63;38.09;99468.48;105323;1268;76273;-73
2022/03/28 09:35:12;;;;;;;9.70;7.50;;;;;;;14.71;37.84;99461.40;105336;1268;68807;-71
2022/03/28 09:38:04;;;;;;;8.50;7.60;;;;;;;14.81;37.88;99461.77;105372;1268;74405;-70
2022/03/28 09:40:33;;;;;;;10.50;8.40;;;;;;;14.87;37.83;99457.10;105487;1268;61399;-71
2022/03/28 09:43:04;;;;;;;9.60;7.40;;;;;;;14.98;38.06;99450.08;105175;1268;61331;-71
2022/03/28 09:45:35;;;;;;;10.30;8.40;;;;;;;15.09;38.22;99446.82;105352;1268;75374;-71
2022/03/28 09:48:07;;;;;;;11.10;9.00;;;;;;;15.16;37.81;99447.54;105311;1268;69150;-70
2022/03/28 09:50:49;;;;;;;9.60;7.90;;;;;;;15.21;37.82;99441.98;105332;1269;73364;-72
2022/03/28 09:53:27;;;;;;;11.80;9.00;;;;;;;15.28;37.73;99442.46;105382;1268;61400;-72
2022/03/28 09:55:54;;;;;;;11.30;8.40;;;;;;;15.37;37.62;99438.36;105347;1268;61259;-71
2022/03/28 09:58:50;;;;;;;11.90;7.70;;;;;;;15.41;37.24;99437.19;105365;1268;61243;-71
2022/03/28 10:01:24;;;;;;;10.00;7.90;;;;;;;15.48;36.96;99428.55;105538;1268;70363;-72
2022/03/28 10:03:54;;;;;;;10.90;7.70;;;;;;;15.54;37.19;99419.58;105335;1268;74356;-73
2022/03/28 10:06:21;;;;;;;9.40;7.60;;;;;;;15.64;36.77;99421.73;105454;1268;61162;-72
2022/03/28 10:08:50;;;;;;;9.50;7.50;;;;;;;15.75;36.92;99411.32;105321;1268;61643;-71
2022/03/28 10:11:17;;;;;;;9.40;7.80;;;;;;;15.83;36.08;99410.55;105324;1268;75338;-73
2022/03/28 10:13:44;;;;;;;11.40;8.30;;;;;;;15.83;35.60;99404.07;105326;1268;69271;-71
2022/03/28 10:16:11;;;;;;;10.10;7.80;;;;;;;15.87;35.94;99397.64;105292;1268;73382;-71
2022/03/28 10:18:40;;;;;;;12.10;8.40;;;;;;;15.99;36.20;99389.63;105357;1268;61377;-72
2022/03/28 10:21:31;;;;;;;10.50;8.10;;;;;;;16.09;36.34;99389.77;105478;1268;61303;-72
2022/03/28 10:24:13;;;;;;;9.60;7.90;;;;;;;16.19;36.41;99378.30;105371;1267;75415;-72
2022/03/28 10:26:44;;;;;;;11.60;7.20;;;;;;;16.36;36.58;99376.33;105144;1268;70389;-72
2022/03/28 10:29:14;;;;;;;9.60;7.50;;;;;;;16.46;35.24;99375.83;105323;1268;74351;-72
2022/03/28 10:31:58;;;;;;;12.00;7.50;;;;;;;16.42;35.18;99372.05;105302;1267;61747;-70
2022/03/28 10:34:59;;;;;;;8.90;6.60;;;;;;;16.45;35.42;99368.94;105332;1268;61609;-71
2022/03/28 10:37:49;;;;;;;9.00;6.80;;;;;;;16.53;34.47;99364.17;105383;1268;75025;-71
2022/03/28 10:40:25;;;;;;;;;;;;;;;16.57;34.72;99354.42;105351;1268;70376;-71
2022/03/28 10:43:09;;;;;;;8.90;7.00;;;;;;;16.70;34.83;99349.60;105273;1268;74248;-72
2022/03/28 10:45:47;;;;;;;9.60;7.00;;;;;;;16.76;34.24;99349.05;105307;1268;61287;-71
2022/03/28 10:48:14;;;;;;;8.80;6.90;;;;;;;16.78;33.76;99339.23;105305;1268;62042;-72
2022/03/28 10:50:51;;;;;;;10.40;6.50;;;;;;;16.82;33.93;99332.77;105272;1268;76447;-70
2022/03/28 10:53:29;;;;;;;10.60;7.50;;;;;;;16.95;34.28;99328.02;105346;1268;70326;-71
2022/03/28 10:56:01;;;;;;;8.40;6.60;;;;;;;17.12;34.75;99322.10;105297;1271;73394;-71
2022/03/28 10:58:31;;;;;;;9.60;6.90;;;;;;;17.27;34.38;99316.19;105385;1268;61389;-71
2022/03/28 11:01:12;;;;;;;8.70;6.60;;;;;;;17.30;33.29;99316.84;105454;1268;61014;-73
2022/03/28 11:03:46;;;;;;;7.00;5.90;;;;;;;17.27;33.31;99307.45;105083;1268;73374;-71
2022/03/28 11:06:15;;;;;;;8.80;6.00;;;;;;;17.26;33.48;99303.36;105333;1271;70347;-71
2022/03/28 11:08:45;;;;;;;7.90;5.80;;;;;;;17.30;33.04;99298.16;105391;1268;72540;-71
2022/03/28 11:11:20;;;;;;;9.50;6.60;;;;;;;17.37;32.92;99295.02;105321;1268;61365;-72
2022/03/28 11:13:59;;;;;;;8.20;6.50;;;;;;;17.39;33.25;99291.20;105330;1268;61812;-72
2022/03/28 11:16:50;;;;;;;10.20;6.90;;;;;;;17.48;33.36;99284.63;105324;1268;76183;-72
2022/03/28 11:19:33;;;;;;;7.90;5.60;;;;;;;17.56;33.32;99280.53;105318;1268;70421;-71
2022/03/28 11:22:08;;;;;;;7.50;6.00;;;;;;;17.65;33.36;99277.59;105341;1268;74353;-72